createdAt,value
2024-02-19T00:02:57.687Z,6.34
2024-02-19T00:06:59.307Z,6.33
2024-02-19T00:11:02.367Z,6.34
2024-02-19T00:15:06.510Z,6.40
2024-02-19T00:19:08.257Z,6.33
2024-02-19T00:23:09.848Z,6.30
2024-02-19T00:27:11.454Z,6.29
2024-02-19T00:31:13.520Z,6.26
2024-02-19T00:35:15.128Z,6.25
2024-02-19T00:39:16.661Z,6.20
2024-02-19T00:43:18.297Z,6.20
2024-02-19T00:47:19.904Z,6.25
2024-02-19T00:51:21.487Z,6.24
2024-02-19T00:55:23.134Z,6.30
2024-02-19T00:59:26.553Z,6.24
2024-02-19T01:03:28.370Z,6.33
2024-02-19T01:07:29.991Z,6.27
2024-02-19T01:11:31.653Z,6.26
2024-02-19T01:15:33.299Z,6.21
2024-02-19T01:19:35.445Z,6.29
2024-02-19T01:23:37.561Z,6.28
2024-02-19T01:27:39.139Z,6.23
2024-02-19T01:31:40.729Z,6.26
2024-02-19T01:35:42.625Z,6.25
2024-02-19T01:43:45.864Z,6.22
2024-02-19T01:47:47.532Z,6.24
2024-02-19T01:51:49.844Z,6.22
2024-02-19T01:55:51.503Z,6.26
2024-02-19T01:59:54.034Z,6.34
2024-02-19T02:03:55.970Z,6.41
2024-02-19T02:07:58.396Z,6.31
2024-02-19T02:12:00.094Z,6.36
2024-02-19T02:16:05.726Z,6.30
2024-02-19T02:20:09.286Z,6.30
2024-02-19T02:24:11.024Z,6.30
2024-02-19T02:28:12.675Z,6.38
2024-02-19T02:32:16.303Z,6.31
2024-02-19T02:36:17.893Z,6.30
2024-02-19T02:40:19.489Z,6.38
2024-02-19T02:44:21.125Z,6.26
2024-02-19T02:48:23.172Z,6.27
2024-02-19T02:52:24.872Z,6.34
2024-02-19T02:56:26.396Z,6.42
2024-02-19T03:00:27.936Z,6.34
2024-02-19T03:04:29.588Z,6.40
2024-02-19T03:08:31.643Z,6.27
2024-02-19T03:12:33.211Z,6.43
2024-02-19T03:16:35.544Z,6.39
2024-02-19T03:20:37.693Z,6.33
2024-02-19T03:24:39.341Z,6.38
2024-02-19T03:28:40.982Z,6.37
2024-02-19T03:32:42.688Z,6.30
2024-02-19T03:36:51.857Z,6.36
2024-02-19T03:40:53.419Z,6.29
2024-02-19T03:44:54.948Z,6.29
2024-02-19T03:48:56.971Z,6.31
2024-02-19T03:52:58.615Z,6.23
2024-02-19T03:57:00.246Z,6.20
2024-02-19T04:01:02.122Z,6.19
2024-02-19T04:05:04.581Z,6.21
2024-02-19T04:09:06.175Z,6.17
2024-02-19T04:13:07.713Z,6.11
2024-02-19T04:17:09.608Z,6.07
2024-02-19T04:21:11.146Z,6.04
2024-02-19T04:25:14.552Z,6.06
2024-02-19T04:29:16.104Z,6.09
2024-02-19T04:33:17.699Z,6.04
2024-02-19T04:37:20.652Z,6.09
2024-02-19T04:41:22.202Z,6.05
2024-02-19T04:45:23.816Z,5.98
2024-02-19T04:49:25.448Z,6.03
2024-02-19T04:53:27.322Z,5.98
2024-02-19T04:57:28.917Z,6.07
2024-02-19T05:01:33.845Z,5.96
2024-02-19T05:05:36.385Z,5.97
2024-02-19T05:09:38.151Z,6.01
2024-02-19T05:13:39.746Z,5.92
2024-02-19T05:17:41.315Z,5.93
2024-02-19T05:21:43.000Z,5.96
2024-02-19T05:25:44.663Z,6.08
2024-02-19T05:29:46.226Z,6.04
2024-02-19T05:33:47.835Z,6.11
2024-02-19T05:37:49.421Z,6.13
2024-02-19T05:41:50.961Z,6.16
2024-02-19T05:45:54.200Z,6.07
2024-02-19T05:49:55.966Z,6.08
2024-02-19T05:53:57.509Z,6.06
2024-02-19T05:57:59.216Z,6.14
2024-02-19T06:02:01.074Z,6.15
2024-02-19T06:06:04.139Z,6.15
2024-02-19T06:10:07.793Z,6.15
2024-02-19T06:14:09.432Z,6.09
2024-02-19T06:18:11.086Z,6.10
2024-02-19T06:22:15.294Z,6.02
2024-02-19T06:26:17.050Z,6.04
2024-02-19T06:30:19.901Z,6.05
2024-02-19T06:34:22.441Z,6.12
2024-02-19T06:38:24.084Z,6.15
2024-02-19T06:42:25.582Z,6.13
2024-02-19T06:46:27.290Z,6.09
2024-02-19T06:50:28.818Z,6.01
2024-02-19T06:54:31.965Z,6.04
2024-02-19T06:58:34.811Z,6.14
2024-02-19T07:02:36.660Z,6.05
2024-02-19T07:06:38.585Z,6.05
2024-02-19T07:10:40.782Z,6.06
2024-02-19T07:14:43.008Z,6.14
2024-02-19T07:18:44.813Z,6.12
2024-02-19T07:22:46.487Z,6.05
2024-02-19T07:26:48.098Z,6.04
2024-02-19T07:30:49.628Z,6.19
2024-02-19T07:34:51.190Z,6.19
2024-02-19T07:38:52.834Z,6.26
2024-02-19T07:42:54.412Z,6.12
2024-02-19T07:46:55.915Z,6.16
2024-02-19T07:50:57.479Z,6.19
2024-02-19T07:54:59.161Z,6.34
2024-02-19T07:59:00.663Z,6.23
2024-02-19T08:03:02.811Z,6.15
2024-02-19T08:07:05.014Z,6.14
2024-02-19T08:11:06.951Z,6.09
2024-02-19T08:15:10.045Z,6.15
2024-02-19T08:19:11.668Z,6.02
2024-02-19T08:23:13.436Z,6.14
2024-02-19T08:27:15.024Z,6.09
2024-02-19T08:31:16.620Z,6.13
2024-02-19T08:35:18.485Z,6.01
2024-02-19T08:39:20.229Z,6.03
2024-02-19T08:43:21.887Z,5.97
2024-02-19T08:47:23.674Z,6.00
2024-02-19T08:51:25.552Z,5.98
2024-02-19T08:55:27.296Z,6.12
2024-02-19T08:59:28.928Z,6.12
2024-02-19T09:03:30.588Z,6.21
2024-02-19T09:07:33.108Z,6.37
2024-02-19T09:11:34.822Z,6.56
2024-02-19T09:15:36.421Z,6.47
2024-02-19T09:19:38.187Z,6.33
2024-02-19T09:23:39.934Z,6.37
2024-02-19T09:27:41.564Z,6.35
2024-02-19T09:31:43.047Z,6.25
2024-02-19T09:35:45.517Z,6.17
2024-02-19T09:39:51.579Z,6.15
2024-02-19T09:43:53.246Z,6.04
2024-02-19T09:48:01.425Z,5.88
2024-02-19T09:52:04.425Z,5.83
2024-02-19T09:56:08.144Z,5.76
2024-02-19T10:00:13.423Z,5.70
2024-02-19T10:04:16.840Z,5.52
2024-02-19T10:08:18.551Z,5.54
2024-02-19T10:12:20.709Z,5.64
2024-02-19T10:16:22.302Z,5.69
2024-02-19T10:20:23.868Z,5.60
2024-02-19T10:24:27.203Z,5.55
2024-02-19T10:28:29.859Z,5.67
2024-02-19T10:32:31.505Z,5.86
2024-02-19T10:36:34.505Z,5.99
2024-02-19T10:40:36.554Z,5.94
2024-02-19T10:44:38.790Z,6.10
2024-02-19T10:48:41.567Z,6.23
2024-02-19T10:52:43.170Z,6.37
2024-02-19T10:56:45.482Z,6.34
2024-02-19T11:00:47.202Z,6.24
2024-02-19T11:04:52.696Z,6.39
2024-02-19T11:08:57.187Z,6.41
2024-02-19T11:13:07.436Z,6.66
2024-02-19T11:17:09.900Z,6.41
2024-02-19T11:21:12.067Z,6.32
2024-02-19T11:25:13.672Z,6.43
2024-02-19T11:29:23.482Z,6.18
2024-02-19T11:33:26.704Z,6.27
2024-02-19T11:37:28.318Z,6.72
2024-02-19T11:41:30.125Z,6.60
2024-02-19T11:45:33.891Z,6.69
2024-02-19T11:49:35.709Z,6.65
2024-02-19T11:53:37.769Z,6.41
2024-02-19T11:57:39.268Z,6.49
2024-02-19T12:01:41.011Z,6.55
2024-02-19T12:05:43.078Z,6.48
2024-02-19T12:09:45.035Z,6.17
2024-02-19T12:13:47.459Z,6.03
2024-02-19T12:17:54.202Z,5.87
2024-02-19T12:21:55.940Z,5.86
2024-02-19T12:25:57.524Z,6.03
2024-02-19T12:29:59.160Z,5.95
2024-02-19T12:34:01.111Z,5.93
2024-02-19T12:38:02.859Z,6.04
2024-02-19T12:42:09.515Z,6.18
2024-02-19T12:46:15.630Z,6.13
2024-02-19T12:50:18.660Z,6.24
2024-02-19T12:54:21.747Z,6.31
2024-02-19T12:58:24.296Z,6.40
2024-02-19T13:02:25.946Z,6.52
2024-02-19T13:06:29.006Z,6.56
2024-02-19T13:10:32.717Z,6.87
2024-02-19T13:14:35.466Z,6.57
2024-02-19T13:18:37.445Z,6.46
2024-02-19T13:22:39.200Z,6.38
2024-02-19T13:26:40.788Z,6.27
2024-02-19T13:30:42.565Z,6.16
2024-02-19T13:34:44.228Z,6.14
2024-02-19T13:38:48.703Z,6.06
2024-02-19T13:42:50.410Z,6.01
2024-02-19T13:46:52.097Z,5.96
2024-02-19T13:50:57.881Z,5.94
2024-02-19T13:54:59.816Z,5.99
2024-02-19T13:59:01.376Z,5.95
2024-02-19T14:03:03.133Z,5.96
2024-02-19T14:07:05.242Z,5.99
2024-02-19T14:11:08.140Z,6.03
2024-02-19T14:15:10.037Z,6.01
2024-02-19T14:19:11.792Z,5.99
2024-02-19T14:23:13.740Z,5.95
2024-02-19T14:27:15.397Z,5.90
2024-02-19T14:31:17.196Z,5.89
2024-02-19T14:35:19.067Z,5.88
2024-02-19T14:39:21.560Z,5.87
2024-02-19T14:43:23.445Z,5.89
2024-02-19T14:47:25.218Z,5.92
2024-02-19T14:51:27.031Z,5.91
2024-02-19T14:55:28.758Z,5.91
2024-02-19T14:59:30.455Z,5.86
2024-02-19T15:03:33.166Z,5.83
2024-02-19T15:07:35.783Z,5.86
2024-02-19T15:11:37.482Z,5.84
2024-02-19T15:15:39.013Z,5.80
2024-02-19T15:19:40.771Z,5.82
2024-02-19T15:23:42.694Z,5.78
2024-02-19T15:27:44.380Z,5.71
2024-02-19T15:31:46.407Z,5.68
2024-02-19T15:35:48.681Z,5.65
2024-02-19T15:39:51.013Z,5.55
2024-02-19T15:43:55.620Z,5.51
2024-02-19T15:47:57.904Z,5.44
2024-02-19T15:51:59.510Z,5.43
2024-02-19T15:56:01.211Z,5.42
2024-02-19T16:00:03.023Z,5.36
2024-02-19T16:04:04.794Z,5.34
2024-02-19T16:08:32.336Z,5.31
2024-02-19T16:12:33.902Z,5.27
2024-02-19T16:16:35.666Z,5.24
2024-02-19T16:20:37.330Z,5.24
2024-02-19T16:24:38.918Z,5.21
2024-02-19T16:28:42.025Z,5.19
2024-02-19T16:32:43.805Z,5.16
2024-02-19T16:36:45.889Z,5.14
2024-02-19T16:40:47.849Z,5.11
2024-02-19T16:44:49.492Z,5.13
2024-02-19T16:48:51.192Z,5.16
2024-02-19T16:52:52.804Z,5.11
2024-02-19T16:56:54.349Z,5.07
2024-02-19T17:00:58.993Z,5.04
2024-02-19T17:05:03.356Z,5.00
2024-02-19T17:09:07.210Z,4.96
2024-02-19T17:13:08.793Z,4.94
2024-02-19T17:17:10.595Z,4.94
2024-02-19T17:21:12.197Z,4.94
2024-02-19T17:25:13.914Z,4.92
2024-02-19T17:29:15.481Z,4.94
2024-02-19T17:33:17.174Z,4.93
2024-02-19T17:37:19.250Z,4.90
2024-02-19T17:41:21.084Z,4.89
2024-02-19T17:45:22.922Z,4.89
2024-02-19T17:49:24.833Z,4.92
2024-02-19T17:53:26.505Z,4.88
2024-02-19T17:57:28.024Z,4.85
2024-02-19T18:01:29.803Z,4.83
2024-02-19T18:05:31.651Z,4.83
2024-02-19T18:09:33.239Z,4.80
2024-02-19T18:13:35.171Z,4.78
2024-02-19T18:17:37.373Z,4.77
2024-02-19T18:21:38.951Z,4.73
2024-02-19T18:25:40.488Z,4.71
2024-02-19T18:29:42.625Z,4.68
2024-02-19T18:33:44.384Z,4.66
2024-02-19T18:37:46.108Z,4.59
2024-02-19T18:41:48.360Z,4.55
2024-02-19T18:45:49.934Z,4.53
2024-02-19T18:49:51.702Z,4.49
2024-02-19T18:53:53.433Z,4.48
2024-02-19T18:57:55.557Z,4.44
2024-02-19T19:01:58.967Z,4.40
2024-02-19T19:06:04.353Z,4.33
2024-02-19T19:10:06.871Z,4.29
2024-02-19T19:14:10.842Z,4.25
2024-02-19T19:18:13.063Z,4.22
2024-02-19T19:22:19.891Z,4.17
2024-02-19T19:26:21.608Z,4.09
2024-02-19T19:30:25.104Z,4.02
2024-02-19T19:34:27.955Z,3.97
2024-02-19T19:38:30.307Z,3.97
2024-02-19T19:42:31.891Z,3.99
2024-02-19T19:46:34.335Z,4.06
2024-02-19T19:50:36.932Z,4.10
2024-02-19T19:54:39.501Z,4.17
2024-02-19T19:58:41.165Z,4.23
2024-02-19T20:02:45.969Z,4.28
2024-02-19T20:06:47.847Z,4.34
2024-02-19T20:10:49.791Z,4.38
2024-02-19T20:14:54.140Z,4.40
2024-02-19T20:18:58.775Z,4.43
2024-02-19T20:23:00.532Z,4.47
2024-02-19T20:27:03.023Z,4.51
2024-02-19T20:31:06.960Z,4.54
2024-02-19T20:35:09.389Z,4.54
2024-02-19T20:39:15.141Z,4.57
2024-02-19T20:43:16.747Z,4.58
2024-02-19T20:47:19.765Z,4.60
2024-02-19T20:51:21.302Z,4.60
2024-02-19T20:55:24.206Z,4.61
2024-02-19T20:59:25.787Z,4.63
2024-02-19T21:03:35.506Z,4.60
2024-02-19T21:07:44.539Z,4.61
2024-02-19T21:11:47.235Z,4.61
2024-02-19T21:15:49.015Z,4.61
2024-02-19T21:19:51.124Z,4.62
2024-02-19T21:23:52.833Z,4.63
2024-02-19T21:27:54.420Z,4.65
2024-02-19T21:31:56.111Z,4.67
2024-02-19T21:36:06.062Z,4.68
2024-02-19T21:40:10.422Z,4.70
2024-02-19T21:44:12.816Z,4.70
2024-02-19T21:48:14.443Z,4.71
2024-02-19T21:52:16.132Z,4.71
2024-02-19T21:56:18.050Z,4.74
2024-02-19T22:00:20.681Z,4.76
2024-02-19T22:04:22.322Z,4.77
2024-02-19T22:08:24.647Z,4.77
2024-02-19T22:12:26.184Z,4.79
2024-02-19T22:16:27.788Z,4.82
2024-02-19T22:20:30.598Z,4.89
2024-02-19T22:24:32.132Z,4.89
2024-02-19T22:28:33.765Z,4.92
2024-02-19T22:32:35.350Z,4.92
2024-02-19T22:36:36.873Z,4.94
2024-02-19T22:40:38.603Z,4.95
2024-02-19T22:44:41.762Z,4.99
2024-02-19T22:48:43.373Z,5.01
2024-02-19T22:52:46.792Z,5.03
2024-02-19T22:56:48.654Z,5.03
2024-02-19T23:00:51.178Z,5.05
2024-02-19T23:04:54.309Z,5.08
2024-02-19T23:08:55.825Z,5.08
2024-02-19T23:12:57.904Z,5.09
2024-02-19T23:16:59.777Z,5.11
2024-02-19T23:21:01.519Z,5.15
2024-02-19T23:25:03.675Z,5.17
2024-02-19T23:29:05.248Z,5.22
2024-02-19T23:33:06.981Z,5.20
2024-02-19T23:37:10.550Z,5.21
2024-02-19T23:41:12.780Z,5.23
2024-02-19T23:45:14.469Z,5.23
2024-02-19T23:49:16.722Z,5.25
2024-02-19T23:53:18.399Z,5.27
2024-02-19T23:57:20.236Z,5.28
